createdAt,value
2022-11-28T00:02:14.168Z,92.78
2022-11-28T00:04:44.016Z,92.75
2022-11-28T00:07:12.784Z,92.75
2022-11-28T00:09:41.694Z,92.70
2022-11-28T00:12:10.008Z,92.74
2022-11-28T00:14:42.000Z,92.66
2022-11-28T00:17:10.814Z,92.68
2022-11-28T00:19:41.569Z,92.67
2022-11-28T00:22:11.179Z,92.69
2022-11-28T00:24:47.273Z,92.64
2022-11-28T00:27:16.717Z,92.63
2022-11-28T00:29:44.703Z,92.65
2022-11-28T00:32:14.313Z,92.62
2022-11-28T00:34:46.557Z,92.54
2022-11-28T00:37:16.887Z,92.55
2022-11-28T00:39:47.873Z,92.55
2022-11-28T00:42:21.347Z,92.55
2022-11-28T00:44:50.097Z,92.49
2022-11-28T00:47:19.044Z,92.47
2022-11-28T00:49:47.887Z,92.45
2022-11-28T00:52:19.684Z,92.44
2022-11-28T00:54:47.697Z,92.40
2022-11-28T00:57:17.114Z,92.37
2022-11-28T00:59:45.124Z,92.35
2022-11-28T01:02:14.801Z,92.36
2022-11-28T01:04:43.303Z,92.30
2022-11-28T01:07:12.595Z,92.33
2022-11-28T01:09:42.154Z,92.30
2022-11-28T01:12:11.116Z,92.32
2022-11-28T01:14:44.360Z,92.25
2022-11-28T01:17:14.101Z,92.29
2022-11-28T01:19:42.445Z,92.28
2022-11-28T01:22:10.861Z,92.29
2022-11-28T01:24:38.868Z,92.34
2022-11-28T01:27:09.689Z,92.38
2022-11-28T01:29:38.459Z,92.39
2022-11-28T01:32:06.562Z,92.40
2022-11-28T01:34:34.595Z,92.43
2022-11-28T01:37:03.384Z,92.47
2022-11-28T01:39:32.050Z,92.52
2022-11-28T01:42:00.423Z,92.50
2022-11-28T01:45:06.429Z,92.59
2022-11-28T01:47:35.536Z,92.55
2022-11-28T01:50:06.514Z,92.62
2022-11-28T01:52:36.482Z,92.62
2022-11-28T01:55:06.631Z,92.58
2022-11-28T01:57:36.417Z,92.58
2022-11-28T02:00:11.893Z,92.62
2022-11-28T02:02:44.617Z,92.59
2022-11-28T02:05:12.757Z,92.63
2022-11-28T02:07:42.408Z,92.52
2022-11-28T02:10:13.577Z,92.47
2022-11-28T02:12:55.669Z,92.44
2022-11-28T02:15:35.065Z,92.41
2022-11-28T02:18:14.527Z,92.43
2022-11-28T02:20:57.684Z,92.36
2022-11-28T02:23:26.951Z,92.29
2022-11-28T02:26:22.314Z,92.27
2022-11-28T02:29:12.302Z,92.23
2022-11-28T02:32:02.013Z,92.15
2022-11-28T02:34:41.119Z,92.05
2022-11-28T02:37:17.470Z,92.10
2022-11-28T02:39:56.709Z,92.08
2022-11-28T02:42:31.869Z,92.04
2022-11-28T02:45:02.125Z,92.02
2022-11-28T02:47:34.717Z,91.99
2022-11-28T02:50:07.346Z,92.01
2022-11-28T02:52:37.645Z,91.99
2022-11-28T02:55:09.807Z,92.01
2022-11-28T02:57:37.944Z,92.05
2022-11-28T03:00:26.484Z,92.11
2022-11-28T03:03:17.843Z,92.16
2022-11-28T03:05:51.165Z,92.14
2022-11-28T03:08:32.185Z,92.17
2022-11-28T03:11:05.599Z,92.19
2022-11-28T03:13:39.986Z,92.12
2022-11-28T03:16:16.139Z,92.04
2022-11-28T03:18:56.200Z,92.04
2022-11-28T03:21:27.297Z,92.11
2022-11-28T03:24:00.877Z,92.16
2022-11-28T03:26:34.253Z,92.13
2022-11-28T03:29:10.111Z,92.24
2022-11-28T03:31:40.892Z,92.33
2022-11-28T03:34:15.086Z,92.29
2022-11-28T03:36:48.730Z,92.35
2022-11-28T03:39:23.943Z,92.41
2022-11-28T03:41:57.007Z,92.41
2022-11-28T03:44:30.046Z,92.39
2022-11-28T03:46:59.579Z,92.43
2022-11-28T03:49:32.218Z,92.43
2022-11-28T03:52:03.774Z,92.43
2022-11-28T03:54:36.131Z,92.44
2022-11-28T03:57:08.512Z,92.40
2022-11-28T03:59:39.143Z,92.44
2022-11-28T04:02:14.975Z,92.45
2022-11-28T04:04:52.080Z,92.52
2022-11-28T04:07:25.336Z,92.49
2022-11-28T04:10:03.323Z,92.52
2022-11-28T04:12:38.755Z,92.43
2022-11-28T04:15:10.825Z,92.35
2022-11-28T04:17:43.383Z,92.30
2022-11-28T04:20:16.426Z,92.30
2022-11-28T04:22:48.479Z,92.24
2022-11-28T04:25:21.556Z,92.21
2022-11-28T04:27:55.406Z,92.19
2022-11-28T04:30:23.523Z,92.15
2022-11-28T04:32:54.458Z,92.15
2022-11-28T04:35:30.285Z,92.10
2022-11-28T04:38:03.409Z,92.09
2022-11-28T04:40:34.490Z,92.05
2022-11-28T04:43:05.750Z,91.99
2022-11-28T04:45:36.908Z,91.90
2022-11-28T04:48:10.612Z,91.79
2022-11-28T04:50:42.932Z,91.72
2022-11-28T04:53:19.049Z,91.70
2022-11-28T04:55:51.836Z,91.55
2022-11-28T04:58:24.787Z,91.42
2022-11-28T05:01:00.879Z,91.38
2022-11-28T05:03:31.860Z,91.26
2022-11-28T05:06:03.422Z,91.21
2022-11-28T05:08:33.634Z,91.12
2022-11-28T05:11:02.860Z,91.07
2022-11-28T05:13:31.383Z,90.99
2022-11-28T05:16:03.376Z,90.94
2022-11-28T05:18:34.635Z,90.85
2022-11-28T05:21:08.105Z,90.79
2022-11-28T05:23:37.005Z,90.75
2022-11-28T05:26:11.729Z,90.66
2022-11-28T05:28:41.744Z,90.61
2022-11-28T05:31:11.464Z,90.58
2022-11-28T05:33:39.784Z,90.62
2022-11-28T05:36:13.722Z,90.52
2022-11-28T05:38:43.727Z,90.55
2022-11-28T05:41:21.302Z,90.53
2022-11-28T05:43:49.280Z,90.50
2022-11-28T05:46:18.249Z,90.45
2022-11-28T05:48:46.451Z,90.39
2022-11-28T05:51:18.721Z,90.37
2022-11-28T05:53:46.628Z,90.39
2022-11-28T05:56:17.774Z,90.41
2022-11-28T05:58:46.724Z,90.38
2022-11-28T06:01:19.500Z,90.36
2022-11-28T06:03:51.100Z,90.28
2022-11-28T06:06:22.725Z,90.27
2022-11-28T06:08:53.502Z,90.21
2022-11-28T06:11:23.225Z,90.20
2022-11-28T06:13:53.315Z,92.91
2022-11-28T06:16:24.955Z,93.09
2022-11-28T06:18:56.812Z,92.77
2022-11-28T06:21:34.862Z,91.83
2022-11-28T06:24:09.006Z,92.10
2022-11-28T06:26:38.487Z,90.99
2022-11-28T06:29:06.430Z,90.23
2022-11-28T06:31:37.763Z,89.57
2022-11-28T06:34:09.508Z,90.08
2022-11-28T06:36:38.881Z,89.67
2022-11-28T06:39:07.251Z,88.53
2022-11-28T06:41:35.324Z,89.18
2022-11-28T06:44:04.556Z,87.98
2022-11-28T06:46:32.762Z,87.70
2022-11-28T06:49:03.431Z,87.97
2022-11-28T06:51:32.532Z,88.30
2022-11-28T06:54:02.562Z,88.53
2022-11-28T06:56:31.006Z,88.75
2022-11-28T06:59:00.727Z,88.90
2022-11-28T07:01:34.806Z,89.02
2022-11-28T07:04:03.257Z,89.14
2022-11-28T07:06:31.297Z,89.21
2022-11-28T07:09:00.417Z,89.33
2022-11-28T07:11:33.488Z,89.39
2022-11-28T07:14:03.314Z,89.50
2022-11-28T07:16:35.929Z,89.50
2022-11-28T07:19:04.149Z,89.52
2022-11-28T07:21:33.704Z,89.53
2022-11-28T07:24:03.958Z,89.47
2022-11-28T07:26:33.570Z,89.35
2022-11-28T07:29:01.751Z,89.32
2022-11-28T07:31:32.680Z,89.24
2022-11-28T07:34:03.584Z,89.22
2022-11-28T07:36:32.665Z,89.12
2022-11-28T07:39:04.786Z,89.13
2022-11-28T07:41:34.212Z,89.14
2022-11-28T07:44:07.060Z,89.07
2022-11-28T07:46:35.474Z,89.05
2022-11-28T07:49:04.349Z,89.04
2022-11-28T07:51:35.459Z,89.04
2022-11-28T07:54:05.844Z,88.87
2022-11-28T07:57:12.052Z,88.75
2022-11-28T07:59:26.698Z,88.67
2022-11-28T08:01:55.001Z,88.64
2022-11-28T08:04:24.426Z,88.70
2022-11-28T08:06:53.937Z,88.60
2022-11-28T08:09:25.352Z,88.62
2022-11-28T08:11:54.834Z,88.80
2022-11-28T08:14:28.079Z,88.74
2022-11-28T08:16:57.393Z,88.64
2022-11-28T08:19:30.589Z,88.57
2022-11-28T08:22:00.229Z,88.75
2022-11-28T08:24:28.477Z,88.68
2022-11-28T08:26:57.875Z,88.70
2022-11-28T08:29:27.482Z,88.79
2022-11-28T08:31:56.080Z,88.97
2022-11-28T08:34:24.286Z,89.02
2022-11-28T08:36:52.388Z,89.01
2022-11-28T08:39:24.960Z,88.96
2022-11-28T08:41:54.254Z,88.90
2022-11-28T08:44:25.236Z,88.63
2022-11-28T08:46:53.740Z,88.64
2022-11-28T08:49:23.054Z,88.61
2022-11-28T08:51:52.846Z,88.55
2022-11-28T08:54:30.007Z,88.60
2022-11-28T08:56:59.104Z,88.51
2022-11-28T08:59:29.489Z,88.14
2022-11-28T09:01:57.683Z,88.16
2022-11-28T09:04:26.192Z,88.14
2022-11-28T09:06:54.588Z,88.19
2022-11-28T09:09:27.126Z,87.89
2022-11-28T09:12:04.948Z,88.03
2022-11-28T09:14:34.576Z,88.02
2022-11-28T09:17:06.240Z,88.04
2022-11-28T09:19:34.690Z,88.09
2022-11-28T09:22:02.702Z,87.72
2022-11-28T09:24:33.981Z,87.89
2022-11-28T09:27:04.870Z,87.61
2022-11-28T09:29:34.358Z,87.58
2022-11-28T09:32:02.823Z,87.90
2022-11-28T09:34:36.170Z,88.01
2022-11-28T09:37:08.120Z,87.78
2022-11-28T09:39:57.026Z,87.71
2022-11-28T09:42:30.963Z,87.79
2022-11-28T09:45:03.253Z,87.79
2022-11-28T09:47:36.973Z,87.49
2022-11-28T09:50:14.949Z,87.67
2022-11-28T09:52:49.479Z,87.60
2022-11-28T09:55:27.805Z,87.51
2022-11-28T09:57:57.993Z,87.45
2022-11-28T10:00:35.305Z,87.17
2022-11-28T10:03:18.933Z,87.07
2022-11-28T10:05:57.220Z,87.27
2022-11-28T10:08:37.638Z,87.24
2022-11-28T10:11:13.280Z,86.95
2022-11-28T10:14:07.069Z,86.64
2022-11-28T10:16:47.457Z,86.67
2022-11-28T10:19:52.213Z,87.00
2022-11-28T10:22:13.262Z,86.65
2022-11-28T10:24:47.024Z,86.63
2022-11-28T10:27:16.965Z,86.63
2022-11-28T10:29:53.622Z,86.47
2022-11-28T10:32:29.943Z,86.58
2022-11-28T10:35:02.348Z,86.30
2022-11-28T10:37:33.470Z,86.23
2022-11-28T10:40:15.785Z,86.28
2022-11-28T10:42:48.751Z,86.04
2022-11-28T10:45:25.080Z,85.92
2022-11-28T10:48:39.068Z,85.85
2022-11-28T10:51:16.950Z,85.68
2022-11-28T10:53:48.193Z,85.54
2022-11-28T10:56:27.775Z,85.24
2022-11-28T10:59:03.219Z,85.38
2022-11-28T11:01:34.184Z,85.20
2022-11-28T11:04:05.585Z,85.18
2022-11-28T11:06:41.673Z,84.65
2022-11-28T11:09:15.933Z,84.34
2022-11-28T11:11:52.113Z,84.60
2022-11-28T11:14:35.220Z,84.52
2022-11-28T11:17:05.647Z,84.36
2022-11-28T11:19:36.776Z,84.41
2022-11-28T11:22:07.916Z,84.70
2022-11-28T11:24:36.822Z,84.67
2022-11-28T11:27:14.089Z,84.72
2022-11-28T11:29:44.032Z,84.84
2022-11-28T11:32:21.808Z,84.61
2022-11-28T11:34:55.125Z,84.48
2022-11-28T11:37:34.698Z,84.86
2022-11-28T11:40:04.720Z,84.58
2022-11-28T11:42:35.750Z,84.38
2022-11-28T11:45:26.137Z,84.82
2022-11-28T11:47:54.410Z,84.69
2022-11-28T11:50:25.345Z,84.74
2022-11-28T11:53:06.997Z,84.59
2022-11-28T11:55:46.103Z,84.49
2022-11-28T11:58:17.529Z,84.37
2022-11-28T12:00:46.334Z,84.24
2022-11-28T12:03:22.785Z,84.04
2022-11-28T12:08:48.917Z,84.44
2022-11-28T12:11:22.054Z,84.37
2022-11-28T12:13:51.328Z,84.31
2022-11-28T12:16:33.655Z,84.37
2022-11-28T12:19:07.976Z,84.26
2022-11-28T12:21:41.636Z,84.16
2022-11-28T12:24:12.614Z,83.99
2022-11-28T12:26:49.387Z,84.12
2022-11-28T12:29:38.985Z,84.12
2022-11-28T12:32:18.870Z,84.09
2022-11-28T12:34:59.469Z,84.13
2022-11-28T12:38:09.083Z,84.30
2022-11-28T12:40:35.362Z,84.06
2022-11-28T12:43:17.770Z,83.97
2022-11-28T12:45:48.067Z,83.92
2022-11-28T12:48:32.070Z,84.19
2022-11-28T12:51:04.768Z,84.19
2022-11-28T12:53:45.687Z,84.19
2022-11-28T12:56:27.295Z,84.01
2022-11-28T12:58:59.042Z,84.19
2022-11-28T13:01:42.258Z,84.14
2022-11-28T13:04:25.588Z,84.17
2022-11-28T13:07:00.329Z,84.30
2022-11-28T13:09:32.692Z,84.22
2022-11-28T13:12:15.490Z,84.26
2022-11-28T13:14:49.693Z,84.37
2022-11-28T13:17:24.331Z,84.07
2022-11-28T13:19:58.556Z,84.06
2022-11-28T13:22:30.601Z,84.15
2022-11-28T13:25:04.515Z,84.09
2022-11-28T13:27:39.145Z,84.08
2022-11-28T13:30:16.154Z,83.82
2022-11-28T13:32:48.920Z,83.75
2022-11-28T13:35:20.415Z,83.99
2022-11-28T13:40:48.004Z,83.62
2022-11-28T13:43:39.589Z,83.69
2022-11-28T13:46:08.508Z,83.80
2022-11-28T13:49:14.255Z,83.88
2022-11-28T13:51:43.184Z,83.61
2022-11-28T13:54:35.404Z,83.51
2022-11-28T13:57:19.049Z,83.70
2022-11-28T13:59:52.935Z,83.77
2022-11-28T14:02:24.346Z,83.92
2022-11-28T14:04:53.657Z,83.81
2022-11-28T14:07:29.727Z,83.75
2022-11-28T14:10:18.133Z,83.66
2022-11-28T14:12:59.001Z,83.70
2022-11-28T14:15:31.268Z,83.93
2022-11-28T14:18:03.226Z,84.04
2022-11-28T14:20:35.028Z,84.11
2022-11-28T14:23:23.333Z,84.06
2022-11-28T14:25:52.754Z,84.25
2022-11-28T14:28:25.266Z,84.20
2022-11-28T14:30:53.472Z,84.26
2022-11-28T14:33:25.599Z,84.33
2022-11-28T14:36:24.198Z,84.25
2022-11-28T14:39:11.465Z,84.30
2022-11-28T14:42:36.833Z,84.53
2022-11-28T14:45:42.841Z,84.87
2022-11-28T14:48:21.907Z,85.29
2022-11-28T14:51:00.872Z,85.54
2022-11-28T14:53:44.389Z,85.78
2022-11-28T14:56:25.490Z,86.00
2022-11-28T14:58:57.777Z,86.08
2022-11-28T15:01:35.158Z,86.17
2022-11-28T15:04:16.177Z,86.20
2022-11-28T15:06:48.011Z,86.18
2022-11-28T15:09:24.421Z,86.20
2022-11-28T15:12:08.192Z,86.36
2022-11-28T15:14:38.626Z,86.39
2022-11-28T15:17:11.817Z,86.37
2022-11-28T15:19:44.777Z,86.32
2022-11-28T15:22:31.738Z,86.42
2022-11-28T15:25:05.399Z,86.55
2022-11-28T15:27:34.450Z,86.44
2022-11-28T15:30:04.496Z,86.63
2022-11-28T15:32:34.332Z,86.58
2022-11-28T15:35:12.271Z,86.55
2022-11-28T15:37:48.459Z,86.64
2022-11-28T15:40:21.580Z,86.60
2022-11-28T15:42:51.264Z,86.76
2022-11-28T15:45:24.425Z,86.79
2022-11-28T15:47:58.562Z,86.78
2022-11-28T15:50:29.161Z,86.86
2022-11-28T15:53:03.939Z,86.93
2022-11-28T15:55:34.876Z,86.95
2022-11-28T15:58:19.939Z,87.03
2022-11-28T16:00:52.202Z,87.05
2022-11-28T16:03:24.996Z,87.08
2022-11-28T16:05:56.085Z,87.25
2022-11-28T16:08:28.498Z,87.33
2022-11-28T16:11:00.469Z,87.33
2022-11-28T16:13:31.525Z,87.33
2022-11-28T16:16:04.155Z,87.40
2022-11-28T16:18:35.550Z,87.48
2022-11-28T16:21:04.784Z,87.63
2022-11-28T16:23:35.735Z,87.71
2022-11-28T16:26:05.679Z,87.68
2022-11-28T16:28:37.854Z,87.73
2022-11-28T16:31:13.331Z,87.72
2022-11-28T16:33:47.994Z,87.87
2022-11-28T16:36:22.440Z,87.91
2022-11-28T16:38:53.272Z,87.86
2022-11-28T16:41:25.946Z,88.07
2022-11-28T16:43:55.788Z,88.10
2022-11-28T16:46:25.754Z,88.22
2022-11-28T16:48:57.502Z,88.25
2022-11-28T16:51:32.767Z,88.30
2022-11-28T16:54:01.864Z,88.34
2022-11-28T16:56:44.377Z,88.51
2022-11-28T16:59:15.551Z,88.55
2022-11-28T17:01:45.306Z,88.62
2022-11-28T17:04:23.260Z,88.72
2022-11-28T17:06:52.209Z,88.85
2022-11-28T17:09:21.085Z,88.88
2022-11-28T17:11:53.568Z,88.89
2022-11-28T17:14:21.673Z,88.97
2022-11-28T17:16:53.029Z,89.05
2022-11-28T17:19:22.665Z,89.11
2022-11-28T17:21:52.467Z,89.17
2022-11-28T17:24:23.739Z,89.27
2022-11-28T17:26:53.226Z,89.30
2022-11-28T17:29:22.747Z,89.34
2022-11-28T17:31:55.770Z,89.41
2022-11-28T17:34:28.821Z,89.46
2022-11-28T17:36:56.785Z,89.55
2022-11-28T17:39:25.155Z,89.60
2022-11-28T17:41:54.536Z,89.63
2022-11-28T17:44:24.750Z,89.72
2022-11-28T17:46:56.388Z,89.77
2022-11-28T17:49:26.460Z,89.72
2022-11-28T17:51:56.297Z,89.71
2022-11-28T17:54:26.461Z,89.74
2022-11-28T17:56:55.092Z,89.83
2022-11-28T17:59:24.616Z,89.77
2022-11-28T18:01:52.692Z,89.80
2022-11-28T18:04:20.964Z,89.88
2022-11-28T18:06:50.456Z,89.94
2022-11-28T18:09:19.929Z,89.99
2022-11-28T18:11:47.944Z,90.00
2022-11-28T18:14:19.669Z,90.07
2022-11-28T18:16:49.914Z,90.07
2022-11-28T18:19:18.379Z,90.11
2022-11-28T18:21:46.694Z,90.14
2022-11-28T18:24:18.730Z,90.10
2022-11-28T18:26:47.383Z,90.19
2022-11-28T18:29:16.639Z,90.20
2022-11-28T18:31:48.063Z,90.20
2022-11-28T18:34:17.452Z,90.26
2022-11-28T18:36:45.841Z,90.34
2022-11-28T18:39:18.825Z,90.33
2022-11-28T18:41:49.875Z,90.39
2022-11-28T18:44:18.672Z,90.41
2022-11-28T18:46:49.898Z,90.44
2022-11-28T18:49:19.544Z,90.48
2022-11-28T18:51:48.826Z,90.51
2022-11-28T18:54:25.198Z,90.60
2022-11-28T18:56:53.271Z,90.60
2022-11-28T18:59:22.684Z,90.65
2022-11-28T19:01:51.936Z,90.71
2022-11-28T19:04:23.180Z,90.70
2022-11-28T19:06:51.829Z,90.77
2022-11-28T19:09:27.036Z,90.82
2022-11-28T19:11:56.226Z,90.84
2022-11-28T19:14:25.056Z,90.85
2022-11-28T19:16:57.531Z,90.85
2022-11-28T19:19:26.965Z,90.92
2022-11-28T19:21:55.748Z,90.98
2022-11-28T19:24:27.144Z,90.99
2022-11-28T19:26:55.819Z,91.05
2022-11-28T19:29:27.191Z,91.08
2022-11-28T19:31:56.390Z,91.20
2022-11-28T19:34:27.062Z,91.21
2022-11-28T19:36:55.640Z,91.28
2022-11-28T19:39:28.320Z,91.29
2022-11-28T19:41:57.013Z,91.33
2022-11-28T19:44:29.005Z,91.36
2022-11-28T19:46:58.768Z,91.34
2022-11-28T19:49:29.639Z,91.39
2022-11-28T19:51:58.055Z,91.42
2022-11-28T19:54:31.727Z,91.45
2022-11-28T19:57:00.034Z,91.47
2022-11-28T19:59:32.101Z,91.47
2022-11-28T20:02:02.709Z,91.52
2022-11-28T20:04:31.530Z,91.57
2022-11-28T20:07:06.415Z,91.56
2022-11-28T20:09:36.347Z,91.58
2022-11-28T20:12:10.305Z,91.56
2022-11-28T20:14:45.050Z,91.58
2022-11-28T20:17:16.007Z,91.65
2022-11-28T20:19:48.134Z,91.65
2022-11-28T20:22:22.839Z,91.65
2022-11-28T20:24:57.370Z,91.65
2022-11-28T20:27:25.335Z,91.68
2022-11-28T20:29:53.279Z,91.78
2022-11-28T20:32:21.328Z,91.70
2022-11-28T20:34:53.795Z,91.76
2022-11-28T20:37:21.851Z,91.80
2022-11-28T20:39:50.300Z,91.85
2022-11-28T20:42:20.536Z,91.80
2022-11-28T20:44:48.954Z,91.79
2022-11-28T20:47:17.398Z,91.85
2022-11-28T20:49:45.649Z,91.84
2022-11-28T20:52:14.004Z,91.88
2022-11-28T20:54:42.201Z,91.87
2022-11-28T20:57:25.508Z,91.86
2022-11-28T20:59:56.872Z,91.83
2022-11-28T21:02:25.137Z,91.85
2022-11-28T21:04:54.489Z,91.81
2022-11-28T21:07:23.978Z,91.86
2022-11-28T21:09:54.048Z,91.83
2022-11-28T21:12:23.301Z,91.79
2022-11-28T21:14:54.468Z,91.76
2022-11-28T21:17:24.126Z,91.76
2022-11-28T21:19:52.852Z,91.72
2022-11-28T21:22:20.841Z,91.69
2022-11-28T21:24:51.330Z,91.67
2022-11-28T21:27:19.934Z,91.70
2022-11-28T21:29:50.772Z,91.66
2022-11-28T21:32:19.003Z,91.66
2022-11-28T21:34:48.656Z,91.64
2022-11-28T21:37:16.866Z,91.62
2022-11-28T21:39:45.575Z,91.64
2022-11-28T21:42:20.186Z,91.61
2022-11-28T21:44:51.956Z,91.59
2022-11-28T21:47:20.085Z,91.59
2022-11-28T21:49:49.652Z,91.62
2022-11-28T21:52:23.430Z,91.61
2022-11-28T21:54:51.834Z,91.62
2022-11-28T21:57:20.290Z,91.66
2022-11-28T21:59:49.385Z,91.65
2022-11-28T22:02:18.031Z,91.72
2022-11-28T22:04:46.549Z,91.72
2022-11-28T22:07:16.508Z,91.75
2022-11-28T22:09:45.872Z,91.75
2022-11-28T22:12:14.914Z,91.81
2022-11-28T22:14:43.064Z,91.83
2022-11-28T22:17:12.505Z,91.85
2022-11-28T22:19:40.560Z,91.83
2022-11-28T22:22:08.731Z,91.86
2022-11-28T22:24:38.213Z,91.86
2022-11-28T22:27:06.896Z,91.90
2022-11-28T22:29:34.974Z,91.89
2022-11-28T22:32:03.396Z,91.90
2022-11-28T22:34:38.392Z,91.87
2022-11-28T22:37:08.661Z,91.90
2022-11-28T22:39:38.992Z,91.94
2022-11-28T22:42:08.635Z,91.94
2022-11-28T22:44:37.692Z,91.96
2022-11-28T22:47:06.293Z,91.98
2022-11-28T22:49:34.377Z,91.96
2022-11-28T22:52:02.494Z,92.01
2022-11-28T22:54:31.545Z,91.98
2022-11-28T22:57:01.227Z,92.01
2022-11-28T22:59:29.552Z,92.04
2022-11-28T23:01:58.127Z,92.03
2022-11-28T23:04:26.100Z,92.03
2022-11-28T23:06:54.180Z,92.10
2022-11-28T23:09:22.265Z,92.13
2022-11-28T23:11:50.293Z,92.13
2022-11-28T23:14:19.699Z,92.17
2022-11-28T23:16:47.992Z,92.29
2022-11-28T23:19:19.212Z,92.27
2022-11-28T23:21:49.216Z,92.33
2022-11-28T23:24:20.488Z,92.37
2022-11-28T23:26:49.931Z,92.48
2022-11-28T23:29:20.894Z,92.50
2022-11-28T23:31:49.309Z,92.56
2022-11-28T23:34:17.793Z,92.63
2022-11-28T23:36:49.599Z,92.71
2022-11-28T23:39:19.959Z,92.75
2022-11-28T23:41:48.454Z,92.73
2022-11-28T23:44:19.644Z,92.77
2022-11-28T23:46:50.445Z,92.78
2022-11-28T23:49:19.122Z,92.82
2022-11-28T23:51:47.516Z,92.90
2022-11-28T23:54:16.491Z,92.91
2022-11-28T23:56:46.303Z,92.92
2022-11-28T23:59:14.510Z,92.99
